sensor_id;sensor_type;location;lat;lon;timestamp;pressure;altitude;pressure_sealevel;temperature;humidity
59043;BME280;44826;51.596;5.624;2023-09-19T00:00:26;100689.69;;;14.86;87.46
59043;BME280;44826;51.596;5.624;2023-09-19T00:02:56;100687.16;;;14.85;87.68
59043;BME280;44826;51.596;5.624;2023-09-19T00:05:23;100689.75;;;14.85;87.28
59043;BME280;44826;51.596;5.624;2023-09-19T00:07:50;100691.66;;;14.81;87.56
59043;BME280;44826;51.596;5.624;2023-09-19T00:10:16;100684.72;;;14.80;87.56
59043;BME280;44826;51.596;5.624;2023-09-19T00:12:45;100693.56;;;14.78;87.53
59043;BME280;44826;51.596;5.624;2023-09-19T00:15:10;100697.97;;;14.77;87.60
59043;BME280;44826;51.596;5.624;2023-09-19T00:17:36;100704.19;;;14.75;87.72
59043;BME280;44826;51.596;5.624;2023-09-19T00:20:03;100700.78;;;14.72;87.86
59043;BME280;44826;51.596;5.624;2023-09-19T00:22:32;100699.16;;;14.70;87.82
59043;BME280;44826;51.596;5.624;2023-09-19T00:24:58;100705.38;;;14.67;87.99
59043;BME280;44826;51.596;5.624;2023-09-19T00:27:23;100707.19;;;14.65;88.07
59043;BME280;44826;51.596;5.624;2023-09-19T00:29:48;100709.03;;;14.63;88.20
59043;BME280;44826;51.596;5.624;2023-09-19T00:32:13;100710.88;;;14.61;88.40
59043;BME280;44826;51.596;5.624;2023-09-19T00:34:39;100723.16;;;14.59;88.39
59043;BME280;44826;51.596;5.624;2023-09-19T00:37:04;100719.75;;;14.57;88.44
59043;BME280;44826;51.596;5.624;2023-09-19T00:39:29;100725.09;;;14.55;88.43
59043;BME280;44826;51.596;5.624;2023-09-19T00:41:56;100722.50;;;14.54;88.58
59043;BME280;44826;51.596;5.624;2023-09-19T00:44:22;100722.69;;;14.51;88.50
59043;BME280;44826;51.596;5.624;2023-09-19T00:46:48;100722.72;;;14.49;88.24
59043;BME280;44826;51.596;5.624;2023-09-19T00:49:15;100726.34;;;14.47;88.36
59043;BME280;44826;51.596;5.624;2023-09-19T00:51:40;100725.56;;;14.45;88.08
59043;BME280;44826;51.596;5.624;2023-09-19T00:54:11;100728.28;;;14.41;88.29
59043;BME280;44826;51.596;5.624;2023-09-19T00:56:38;100736.16;;;14.41;88.22
59043;BME280;44826;51.596;5.624;2023-09-19T00:59:05;100743.22;;;14.39;88.07
59043;BME280;44826;51.596;5.624;2023-09-19T01:01:31;100746.75;;;14.38;88.12
59043;BME280;44826;51.596;5.624;2023-09-19T01:03:56;100744.22;;;14.37;88.19
59043;BME280;44826;51.596;5.624;2023-09-19T01:06:22;100751.28;;;14.35;87.93
59043;BME280;44826;51.596;5.624;2023-09-19T01:08:47;100753.06;;;14.34;87.62
59043;BME280;44826;51.596;5.624;2023-09-19T01:11:20;100757.50;;;14.32;87.69
59043;BME280;44826;51.596;5.624;2023-09-19T01:13:58;100758.41;;;14.31;87.78
59043;BME280;44826;51.596;5.624;2023-09-19T01:16:50;100752.38;;;14.29;87.66
59043;BME280;44826;51.596;5.624;2023-09-19T01:19:32;100759.44;;;14.27;87.49
59043;BME280;44826;51.596;5.624;2023-09-19T01:22:13;100755.25;;;14.23;87.49
59043;BME280;44826;51.596;5.624;2023-09-19T01:25:02;100766.63;;;14.22;87.79
59043;BME280;44826;51.596;5.624;2023-09-19T01:30:35;100771.22;;;14.17;87.13
59043;BME280;44826;51.596;5.624;2023-09-19T01:33:05;100767.75;;;14.16;86.55
59043;BME280;44826;51.596;5.624;2023-09-19T01:35:31;100771.34;;;14.14;86.49
59043;BME280;44826;51.596;5.624;2023-09-19T01:37:59;100768.75;;;14.14;86.57
59043;BME280;44826;51.596;5.624;2023-09-19T01:40:24;100781.03;;;14.11;86.18
59043;BME280;44826;51.596;5.624;2023-09-19T01:43:06;100783.66;;;14.11;86.26
59043;BME280;44826;51.596;5.624;2023-09-19T01:46:06;100779.31;;;14.10;86.01
59043;BME280;44826;51.596;5.624;2023-09-19T01:48:43;100782.84;;;14.09;85.88
59043;BME280;44826;51.596;5.624;2023-09-19T01:51:14;100786.38;;;14.08;85.06
59043;BME280;44826;51.596;5.624;2023-09-19T01:54:02;100790.78;;;14.08;85.22
59043;BME280;44826;51.596;5.624;2023-09-19T01:56:35;100786.50;;;14.05;84.37
59043;BME280;44826;51.596;5.624;2023-09-19T01:59:07;100790.94;;;14.03;84.23
59043;BME280;44826;51.596;5.624;2023-09-19T02:01:34;100780.47;;;14.03;84.19
59043;BME280;44826;51.596;5.624;2023-09-19T02:04:02;100783.09;;;14.03;83.58
59043;BME280;44826;51.596;5.624;2023-09-19T02:06:27;100775.44;;;13.99;83.88
59043;BME280;44826;51.596;5.624;2023-09-19T02:08:54;100785.00;;;14.00;83.11
59043;BME280;44826;51.596;5.624;2023-09-19T02:11:19;100785.06;;;13.98;83.12
59043;BME280;44826;51.596;5.624;2023-09-19T02:13:45;100783.38;;;13.97;82.95
59043;BME280;44826;51.596;5.624;2023-09-19T02:16:11;100785.19;;;13.95;83.03
59043;BME280;44826;51.596;5.624;2023-09-19T02:18:37;100790.44;;;13.95;82.80
59043;BME280;44826;51.596;5.624;2023-09-19T02:21:04;100794.88;;;13.93;82.35
59043;BME280;44826;51.596;5.624;2023-09-19T02:23:32;100790.53;;;13.92;82.39
59043;BME280;44826;51.596;5.624;2023-09-19T02:25:58;100787.13;;;13.90;82.42
59043;BME280;44826;51.596;5.624;2023-09-19T02:28:26;100790.66;;;13.89;82.06
59043;BME280;44826;51.596;5.624;2023-09-19T02:30:55;100793.34;;;13.87;82.12
59043;BME280;44826;51.596;5.624;2023-09-19T02:33:21;100795.09;;;13.87;81.93
59043;BME280;44826;51.596;5.624;2023-09-19T02:35:46;100803.03;;;13.85;82.09
59043;BME280;44826;51.596;5.624;2023-09-19T02:38:12;100800.44;;;13.84;81.75
59043;BME280;44826;51.596;5.624;2023-09-19T02:40:37;100804.00;;;13.83;81.80
59043;BME280;44826;51.596;5.624;2023-09-19T02:43:03;100803.13;;;13.82;82.07
59043;BME280;44826;51.596;5.624;2023-09-19T02:45:28;100805.81;;;13.80;81.46
59043;BME280;44826;51.596;5.624;2023-09-19T02:47:55;100805.03;;;13.78;81.46
59043;BME280;44826;51.596;5.624;2023-09-19T02:50:20;100811.16;;;13.77;81.74
59043;BME280;44826;51.596;5.624;2023-09-19T02:52:47;100803.44;;;13.74;81.08
59043;BME280;44826;51.596;5.624;2023-09-19T02:55:14;100811.38;;;13.73;81.62
59043;BME280;44826;51.596;5.624;2023-09-19T02:57:45;100808.78;;;13.71;81.36
59043;BME280;44826;51.596;5.624;2023-09-19T03:00:12;100813.19;;;13.71;81.41
59043;BME280;44826;51.596;5.624;2023-09-19T03:02:37;100816.75;;;13.68;80.60
59043;BME280;44826;51.596;5.624;2023-09-19T03:05:05;100811.59;;;13.66;80.49
59043;BME280;44826;51.596;5.624;2023-09-19T03:07:31;100820.41;;;13.64;80.20
59043;BME280;44826;51.596;5.624;2023-09-19T03:09:56;100821.31;;;13.63;80.50
59043;BME280;44826;51.596;5.624;2023-09-19T03:12:21;100818.75;;;13.61;80.20
59043;BME280;44826;51.596;5.624;2023-09-19T03:14:47;100810.19;;;13.58;79.93
59043;BME280;44826;51.596;5.624;2023-09-19T03:17:13;100809.38;;;13.56;80.00
59043;BME280;44826;51.596;5.624;2023-09-19T03:19:39;100815.53;;;13.55;80.38
59043;BME280;44826;51.596;5.624;2023-09-19T03:22:05;100811.31;;;13.50;80.43
59043;BME280;44826;51.596;5.624;2023-09-19T03:24:30;100814.84;;;13.49;79.83
59043;BME280;44826;51.596;5.624;2023-09-19T03:26:56;100814.09;;;13.47;79.63
59043;BME280;44826;51.596;5.624;2023-09-19T03:29:22;100809.75;;;13.46;80.00
59043;BME280;44826;51.596;5.624;2023-09-19T03:31:48;100812.41;;;13.45;79.39
59043;BME280;44826;51.596;5.624;2023-09-19T03:34:13;100811.56;;;13.44;80.04
59043;BME280;44826;51.596;5.624;2023-09-19T03:36:38;100804.66;;;13.43;80.06
59043;BME280;44826;51.596;5.624;2023-09-19T03:39:04;100822.06;;;13.43;79.62
59043;BME280;44826;51.596;5.624;2023-09-19T03:41:30;100816.91;;;13.41;79.46
59043;BME280;44826;51.596;5.624;2023-09-19T03:43:56;100813.41;;;13.42;79.37
59043;BME280;44826;51.596;5.624;2023-09-19T03:46:21;100809.97;;;13.40;79.67
59043;BME280;44826;51.596;5.624;2023-09-19T03:48:47;100797.78;;;13.39;79.74
59043;BME280;44826;51.596;5.624;2023-09-19T03:51:12;100796.97;;;13.39;79.50
59043;BME280;44826;51.596;5.624;2023-09-19T03:53:37;100794.34;;;13.39;80.04
59043;BME280;44826;51.596;5.624;2023-09-19T03:56:02;100800.53;;;13.36;79.76
59043;BME280;44826;51.596;5.624;2023-09-19T03:58:28;100799.59;;;13.37;80.12
59043;BME280;44826;51.596;5.624;2023-09-19T04:00:56;100799.69;;;13.35;79.97
59043;BME280;44826;51.596;5.624;2023-09-19T04:03:23;100804.94;;;13.34;80.39
59043;BME280;44826;51.596;5.624;2023-09-19T04:05:48;100805.03;;;13.32;80.23
59043;BME280;44826;51.596;5.624;2023-09-19T04:08:14;100803.25;;;13.33;80.67
59043;BME280;44826;51.596;5.624;2023-09-19T04:10:42;100807.56;;;13.34;80.41
59043;BME280;44826;51.596;5.624;2023-09-19T04:13:07;100797.19;;;13.32;80.52
59043;BME280;44826;51.596;5.624;2023-09-19T04:15:32;100797.19;;;13.32;80.66
59043;BME280;44826;51.596;5.624;2023-09-19T04:17:58;100796.34;;;13.32;80.83
59043;BME280;44826;51.596;5.624;2023-09-19T04:20:23;100801.56;;;13.32;81.02
59043;BME280;44826;51.596;5.624;2023-09-19T04:22:48;100809.41;;;13.32;81.10
59043;BME280;44826;51.596;5.624;2023-09-19T04:25:14;100812.03;;;13.32;80.77
59043;BME280;44826;51.596;5.624;2023-09-19T04:27:39;100819.78;;;13.33;81.18
59043;BME280;44826;51.596;5.624;2023-09-19T04:30:07;100822.47;;;13.32;81.62
59043;BME280;44826;51.596;5.624;2023-09-19T04:32:37;100818.16;;;13.31;81.38
59043;BME280;44826;51.596;5.624;2023-09-19T04:35:06;100829.38;;;13.33;81.62
59043;BME280;44826;51.596;5.624;2023-09-19T04:37:35;100832.06;;;13.31;81.92
59043;BME280;44826;51.596;5.624;2023-09-19T04:40:00;100841.59;;;13.32;81.67
59043;BME280;44826;51.596;5.624;2023-09-19T04:42:25;100850.28;;;13.33;81.87
59043;BME280;44826;51.596;5.624;2023-09-19T04:44:52;100853.75;;;13.33;82.30
59043;BME280;44826;51.596;5.624;2023-09-19T04:47:18;100866.81;;;13.33;82.30
59043;BME280;44826;51.596;5.624;2023-09-19T04:49:43;100873.66;;;13.38;82.08
59043;BME280;44826;51.596;5.624;2023-09-19T04:52:08;100869.25;;;13.38;82.38
59043;BME280;44826;51.596;5.624;2023-09-19T04:54:34;100876.19;;;13.39;82.35
59043;BME280;44826;51.596;5.624;2023-09-19T04:56:59;100868.34;;;13.41;82.84
59043;BME280;44826;51.596;5.624;2023-09-19T04:59:25;100880.44;;;13.43;82.33
59043;BME280;44826;51.596;5.624;2023-09-19T05:01:51;100874.34;;;13.43;82.44
59043;BME280;44826;51.596;5.624;2023-09-19T05:04:16;100872.47;;;13.46;82.07
59043;BME280;44826;51.596;5.624;2023-09-19T05:06:41;100869.06;;;13.44;82.50
59043;BME280;44826;51.596;5.624;2023-09-19T05:09:06;100875.22;;;13.43;82.56
59043;BME280;44826;51.596;5.624;2023-09-19T05:11:33;100876.94;;;13.43;82.94
59043;BME280;44826;51.596;5.624;2023-09-19T05:13:59;100870.88;;;13.42;82.81
59043;BME280;44826;51.596;5.624;2023-09-19T05:16:29;100870.88;;;13.42;82.76
59043;BME280;44826;51.596;5.624;2023-09-19T05:18:54;100883.03;;;13.43;82.95
59043;BME280;44826;51.596;5.624;2023-09-19T05:21:20;100880.47;;;13.42;83.06
59043;BME280;44826;51.596;5.624;2023-09-19T05:23:45;100883.03;;;13.43;82.93
59043;BME280;44826;51.596;5.624;2023-09-19T05:26:10;100880.44;;;13.43;83.25
59043;BME280;44826;51.596;5.624;2023-09-19T05:28:36;100881.34;;;13.42;83.42
59043;BME280;44826;51.596;5.624;2023-09-19T05:31:02;100883.94;;;13.42;83.15
59043;BME280;44826;51.596;5.624;2023-09-19T05:33:28;100892.63;;;13.43;83.37
59043;BME280;44826;51.596;5.624;2023-09-19T05:35:53;100889.19;;;13.42;83.04
59043;BME280;44826;51.596;5.624;2023-09-19T05:38:19;100892.63;;;13.43;83.87
59043;BME280;44826;51.596;5.624;2023-09-19T05:40:45;100890.09;;;13.41;83.60
59043;BME280;44826;51.596;5.624;2023-09-19T05:43:11;100887.41;;;13.43;83.76
59043;BME280;44826;51.596;5.624;2023-09-19T05:45:36;100900.47;;;13.43;83.97
59043;BME280;44826;51.596;5.624;2023-09-19T05:48:13;100898.72;;;13.43;84.09
59043;BME280;44826;51.596;5.624;2023-09-19T05:50:39;100891.78;;;13.42;84.29
59043;BME280;44826;51.596;5.624;2023-09-19T05:53:05;100891.72;;;13.44;84.37
59043;BME280;44826;51.596;5.624;2023-09-19T05:55:31;100894.31;;;13.45;84.77
59043;BME280;44826;51.596;5.624;2023-09-19T05:57:56;100887.28;;;13.46;85.09
59043;BME280;44826;51.596;5.624;2023-09-19T06:00:23;100893.38;;;13.46;84.80
59043;BME280;44826;51.596;5.624;2023-09-19T06:02:52;100884.66;;;13.47;85.14
59043;BME280;44826;51.596;5.624;2023-09-19T06:05:18;100879.41;;;13.47;84.98
59043;BME280;44826;51.596;5.624;2023-09-19T06:07:43;100881.13;;;13.48;85.30
59043;BME280;44826;51.596;5.624;2023-09-19T06:10:09;100887.19;;;13.49;85.60
59043;BME280;44826;51.596;5.624;2023-09-19T06:12:38;100895.88;;;13.49;85.31
59043;BME280;44826;51.596;5.624;2023-09-19T06:15:04;100900.19;;;13.50;85.73
59043;BME280;44826;51.596;5.624;2023-09-19T06:18:02;100889.72;;;13.50;85.76
59043;BME280;44826;51.596;5.624;2023-09-19T06:20:28;100895.75;;;13.53;85.95
59043;BME280;44826;51.596;5.624;2023-09-19T06:22:54;100894.84;;;13.54;85.79
59043;BME280;44826;51.596;5.624;2023-09-19T06:25:19;100895.66;;;13.56;85.50
59043;BME280;44826;51.596;5.624;2023-09-19T06:27:52;100894.75;;;13.57;85.72
59043;BME280;44826;51.596;5.624;2023-09-19T06:30:20;100912.13;;;13.58;85.81
59043;BME280;44826;51.596;5.624;2023-09-19T06:32:45;100902.47;;;13.60;86.00
59043;BME280;44826;51.596;5.624;2023-09-19T06:35:15;100905.94;;;13.60;86.12
59043;BME280;44826;51.596;5.624;2023-09-19T06:37:41;100924.19;;;13.62;85.94
59043;BME280;44826;51.596;5.624;2023-09-19T06:40:08;100915.44;;;13.63;86.08
59043;BME280;44826;51.596;5.624;2023-09-19T06:42:45;100911.91;;;13.64;86.41
59043;BME280;44826;51.596;5.624;2023-09-19T06:45:11;100921.38;;;13.66;86.28
59043;BME280;44826;51.596;5.624;2023-09-19T06:47:38;100919.56;;;13.69;86.31
59043;BME280;44826;51.596;5.624;2023-09-19T06:50:04;100923.03;;;13.69;86.20
59043;BME280;44826;51.596;5.624;2023-09-19T06:52:30;100926.44;;;13.71;86.62
59043;BME280;44826;51.596;5.624;2023-09-19T06:54:57;100922.00;;;13.73;86.44
59043;BME280;44826;51.596;5.624;2023-09-19T06:57:22;100935.09;;;13.73;86.61
59043;BME280;44826;51.596;5.624;2023-09-19T06:59:47;100922.00;;;13.73;86.59
59043;BME280;44826;51.596;5.624;2023-09-19T07:02:13;100917.66;;;13.74;87.26
59043;BME280;44826;51.596;5.624;2023-09-19T07:04:39;100921.91;;;13.76;86.42
59043;BME280;44826;51.596;5.624;2023-09-19T07:07:04;100928.84;;;13.77;86.81
59043;BME280;44826;51.596;5.624;2023-09-19T07:09:29;100913.03;;;13.80;87.02
59043;BME280;44826;51.596;5.624;2023-09-19T07:11:54;100907.84;;;13.79;86.90
59043;BME280;44826;51.596;5.624;2023-09-19T07:14:20;100913.03;;;13.80;86.92
59043;BME280;44826;51.596;5.624;2023-09-19T07:16:45;100921.69;;;13.83;87.18
59043;BME280;44826;51.596;5.624;2023-09-19T07:19:12;100923.34;;;13.84;87.15
59043;BME280;44826;51.596;5.624;2023-09-19T07:21:40;100924.16;;;13.86;87.00
59043;BME280;44826;51.596;5.624;2023-09-19T07:24:05;100926.66;;;13.89;87.17
59043;BME280;44826;51.596;5.624;2023-09-19T07:26:30;100937.97;;;13.89;87.25
59043;BME280;44826;51.596;5.624;2023-09-19T07:28:56;100934.38;;;13.92;87.29
59043;BME280;44826;51.596;5.624;2023-09-19T07:31:22;100929.03;;;13.95;87.57
59043;BME280;44826;51.596;5.624;2023-09-19T07:33:48;100927.16;;;13.99;87.10
59043;BME280;44826;51.596;5.624;2023-09-19T07:36:13;100928.94;;;13.98;86.79
59043;BME280;44826;51.596;5.624;2023-09-19T07:38:40;100920.19;;;13.99;86.72
59043;BME280;44826;51.596;5.624;2023-09-19T07:41:05;100920.94;;;14.01;87.24
59043;BME280;44826;51.596;5.624;2023-09-19T07:43:31;100926.06;;;14.04;87.24
59043;BME280;44826;51.596;5.624;2023-09-19T07:45:57;100933.75;;;14.09;87.45
59043;BME280;44826;51.596;5.624;2023-09-19T07:48:22;100931.78;;;14.14;87.34
59043;BME280;44826;51.596;5.624;2023-09-19T07:50:49;100934.22;;;14.19;87.75
59043;BME280;44826;51.596;5.624;2023-09-19T07:53:14;100931.38;;;14.25;86.90
59043;BME280;44826;51.596;5.624;2023-09-19T07:55:40;100938.97;;;14.31;86.47
59043;BME280;44826;51.596;5.624;2023-09-19T07:58:06;100930.06;;;14.35;86.05
59043;BME280;44826;51.596;5.624;2023-09-19T08:00:32;100936.09;;;14.37;85.78
59043;BME280;44826;51.596;5.624;2023-09-19T08:03:00;100940.31;;;14.41;86.19
59043;BME280;44826;51.596;5.624;2023-09-19T08:05:25;100939.41;;;14.42;86.23
59043;BME280;44826;51.596;5.624;2023-09-19T08:07:53;100939.19;;;14.47;85.70
59043;BME280;44826;51.596;5.624;2023-09-19T08:10:21;100942.56;;;14.51;86.78
59043;BME280;44826;51.596;5.624;2023-09-19T08:12:47;100941.50;;;14.55;85.72
59043;BME280;44826;51.596;5.624;2023-09-19T08:15:20;100943.97;;;14.60;86.77
59043;BME280;44826;51.596;5.624;2023-09-19T08:17:45;100953.31;;;14.65;85.75
59043;BME280;44826;51.596;5.624;2023-09-19T08:20:12;100948.72;;;14.72;85.29
59043;BME280;44826;51.596;5.624;2023-09-19T08:22:51;100949.44;;;14.76;85.52
59043;BME280;44826;51.596;5.624;2023-09-19T08:25:23;100941.38;;;14.80;85.49
59043;BME280;44826;51.596;5.624;2023-09-19T08:27:50;100940.41;;;14.83;84.74
59043;BME280;44826;51.596;5.624;2023-09-19T08:30:17;100941.25;;;14.83;84.71
59043;BME280;44826;51.596;5.624;2023-09-19T08:32:43;100938.63;;;14.83;84.48
59043;BME280;44826;51.596;5.624;2023-09-19T08:35:10;100935.03;;;14.86;84.23
59043;BME280;44826;51.596;5.624;2023-09-19T08:37:35;100939.28;;;14.89;85.12
59043;BME280;44826;51.596;5.624;2023-09-19T08:40:01;100943.50;;;14.93;84.25
59043;BME280;44826;51.596;5.624;2023-09-19T08:42:26;100949.38;;;14.98;84.66
59043;BME280;44826;51.596;5.624;2023-09-19T08:44:52;100941.34;;;15.02;83.40
59043;BME280;44826;51.596;5.624;2023-09-19T08:47:34;100937.59;;;15.08;84.52
59043;BME280;44826;51.596;5.624;2023-09-19T08:50:19;100938.19;;;15.15;84.14
59043;BME280;44826;51.596;5.624;2023-09-19T08:52:51;100933.66;;;15.18;84.08
59043;BME280;44826;51.596;5.624;2023-09-19T08:55:19;100940.47;;;15.23;83.88
59043;BME280;44826;51.596;5.624;2023-09-19T08:57:49;100945.63;;;15.24;83.89
59043;BME280;44826;51.596;5.624;2023-09-19T09:00:15;100935.88;;;15.28;82.66
59043;BME280;44826;51.596;5.624;2023-09-19T09:02:42;100940.78;;;15.36;84.15
59043;BME280;44826;51.596;5.624;2023-09-19T09:05:09;100936.94;;;15.43;82.48
59043;BME280;44826;51.596;5.624;2023-09-19T09:07:40;100941.84;;;15.51;81.88
59043;BME280;44826;51.596;5.624;2023-09-19T09:10:06;100949.50;;;15.55;83.45
59043;BME280;44826;51.596;5.624;2023-09-19T09:12:32;100945.84;;;15.59;82.24
59043;BME280;44826;51.596;5.624;2023-09-19T09:14:59;100942.84;;;15.67;82.11
59043;BME280;44826;51.596;5.624;2023-09-19T09:17:26;100956.84;;;15.68;81.62
59043;BME280;44826;51.596;5.624;2023-09-19T09:19:54;100946.13;;;15.72;80.04
59043;BME280;44826;51.596;5.624;2023-09-19T09:22:20;100944.22;;;15.76;82.02
59043;BME280;44826;51.596;5.624;2023-09-19T09:24:56;100937.25;;;15.75;81.64
59043;BME280;44826;51.596;5.624;2023-09-19T09:27:29;100940.66;;;15.77;80.53
59043;BME280;44826;51.596;5.624;2023-09-19T09:29:55;100954.69;;;15.76;80.92
59043;BME280;44826;51.596;5.624;2023-09-19T09:32:28;100945.78;;;15.80;79.81
59043;BME280;44826;51.596;5.624;2023-09-19T09:35:06;100938.59;;;15.84;80.53
59043;BME280;44826;51.596;5.624;2023-09-19T09:37:34;100934.88;;;15.89;80.90
59043;BME280;44826;51.596;5.624;2023-09-19T09:40:03;100925.91;;;15.95;79.27
59043;BME280;44826;51.596;5.624;2023-09-19T09:42:41;100903.91;;;15.98;81.87
59043;BME280;44826;51.596;5.624;2023-09-19T09:47:45;100912.22;;;16.06;79.71
59043;BME280;44826;51.596;5.624;2023-09-19T09:50:33;100930.28;;;16.14;79.81
59043;BME280;44826;51.596;5.624;2023-09-19T09:53:22;100927.28;;;16.21;77.85
59043;BME280;44826;51.596;5.624;2023-09-19T09:56:01;100924.47;;;16.24;77.58
59043;BME280;44826;51.596;5.624;2023-09-19T09:58:27;100931.44;;;16.26;76.88
59043;BME280;44826;51.596;5.624;2023-09-19T10:00:57;100933.06;;;16.28;76.69
59043;BME280;44826;51.596;5.624;2023-09-19T10:03:37;100938.09;;;16.33;75.65
59043;BME280;44826;51.596;5.624;2023-09-19T10:06:11;100930.91;;;16.36;75.24
59043;BME280;44826;51.596;5.624;2023-09-19T10:11:59;100941.97;;;16.43;74.13
59043;BME280;44826;51.596;5.624;2023-09-19T10:14:25;100939.06;;;16.49;74.25
59043;BME280;44826;51.596;5.624;2023-09-19T10:16:57;100935.22;;;16.57;72.67
59043;BME280;44826;51.596;5.624;2023-09-19T10:19:30;100924.31;;;16.64;73.81
59043;BME280;44826;51.596;5.624;2023-09-19T10:21:59;100911.00;;;16.67;74.04
59043;BME280;44826;51.596;5.624;2023-09-19T10:24:28;100924.69;;;16.74;72.89
59043;BME280;44826;51.596;5.624;2023-09-19T10:26:53;100925.25;;;16.81;73.48
59043;BME280;44826;51.596;5.624;2023-09-19T10:29:21;100914.34;;;16.89;72.53
59043;BME280;44826;51.596;5.624;2023-09-19T10:31:47;100920.94;;;16.97;72.92
59043;BME280;44826;51.596;5.624;2023-09-19T10:34:16;100918.06;;;17.02;71.58
59043;BME280;44826;51.596;5.624;2023-09-19T10:36:45;100918.06;;;17.02;72.15
59043;BME280;44826;51.596;5.624;2023-09-19T10:39:14;100921.53;;;17.03;71.76
59043;BME280;44826;51.596;5.624;2023-09-19T10:41:50;100922.91;;;17.10;71.40
59043;BME280;44826;51.596;5.624;2023-09-19T10:44:28;100913.72;;;17.19;71.39
59043;BME280;44826;51.596;5.624;2023-09-19T10:46:56;100922.38;;;17.21;70.10
59043;BME280;44826;51.596;5.624;2023-09-19T10:49:22;100918.72;;;17.23;70.65
59043;BME280;44826;51.596;5.624;2023-09-19T10:51:53;100921.03;;;17.29;70.62
59043;BME280;44826;51.596;5.624;2023-09-19T10:54:22;100909.19;;;17.38;70.54
59043;BME280;44826;51.596;5.624;2023-09-19T10:56:52;100920.88;;;17.49;70.34
59043;BME280;44826;51.596;5.624;2023-09-19T10:59:19;100918.19;;;17.50;67.99
59043;BME280;44826;51.596;5.624;2023-09-19T11:04:35;100898.59;;;17.56;70.66
59043;BME280;44826;51.596;5.624;2023-09-19T11:07:05;100898.44;;;17.59;69.31
59043;BME280;44826;51.596;5.624;2023-09-19T11:09:56;100892.16;;;17.62;70.00
59043;BME280;44826;51.596;5.624;2023-09-19T11:14:56;100898.84;;;17.67;67.99
59043;BME280;44826;51.596;5.624;2023-09-19T11:30:46;100849.78;;;17.66;67.41
59043;BME280;44826;51.596;5.624;2023-09-19T11:33:17;100848.69;;;17.70;66.27
59043;BME280;44826;51.596;5.624;2023-09-19T11:43:45;100851.16;;;18.05;64.96
59043;BME280;44826;51.596;5.624;2023-09-19T11:46:11;100827.09;;;18.12;66.15
59043;BME280;44826;51.596;5.624;2023-09-19T11:48:38;100840.78;;;18.18;64.78
59043;BME280;44826;51.596;5.624;2023-09-19T11:51:10;100839.47;;;18.26;64.54
59043;BME280;44826;51.596;5.624;2023-09-19T11:53:42;100832.22;;;18.29;63.00
59043;BME280;44826;51.596;5.624;2023-09-19T11:56:09;100838.94;;;18.35;64.18
59043;BME280;44826;51.596;5.624;2023-09-19T11:58:36;100820.88;;;18.43;63.59
59043;BME280;44826;51.596;5.624;2023-09-19T12:01:04;100834.72;;;18.47;63.92
59043;BME280;44826;51.596;5.624;2023-09-19T12:03:35;100814.22;;;18.52;62.15
59043;BME280;44826;51.596;5.624;2023-09-19T12:06:11;100822.03;;;18.54;63.59
59043;BME280;44826;51.596;5.624;2023-09-19T12:08:39;100831.63;;;18.55;63.39
59043;BME280;44826;51.596;5.624;2023-09-19T12:11:08;100834.06;;;18.58;65.51
59043;BME280;44826;51.596;5.624;2023-09-19T12:13:41;100818.84;;;18.63;64.03
59043;BME280;44826;51.596;5.624;2023-09-19T12:18:40;100832.59;;;18.68;61.75
59043;BME280;44826;51.596;5.624;2023-09-19T12:21:08;100830.97;;;18.65;62.05
59043;BME280;44826;51.596;5.624;2023-09-19T12:23:37;100817.72;;;18.67;63.35
59043;BME280;44826;51.596;5.624;2023-09-19T12:26:06;100824.41;;;18.73;64.25
59043;BME280;44826;51.596;5.624;2023-09-19T12:28:41;100815.38;;;18.77;62.83
59043;BME280;44826;51.596;5.624;2023-09-19T12:31:07;100854.53;;;18.83;62.38
59043;BME280;44826;51.596;5.624;2023-09-19T12:33:34;100840.59;;;18.81;62.01
59043;BME280;44826;51.596;5.624;2023-09-19T12:36:00;100831.94;;;18.79;63.41
59043;BME280;44826;51.596;5.624;2023-09-19T12:38:28;100845.31;;;18.76;62.12
59043;BME280;44826;51.596;5.624;2023-09-19T12:40:57;100843.22;;;18.66;62.79
59043;BME280;44826;51.596;5.624;2023-09-19T12:43:25;100831.91;;;18.64;64.52
59043;BME280;44826;51.596;5.624;2023-09-19T12:45:51;100834.19;;;18.56;63.10
59043;BME280;44826;51.596;5.624;2023-09-19T12:48:19;100844.13;;;18.51;62.76
59043;BME280;44826;51.596;5.624;2023-09-19T12:51:00;100838.50;;;18.43;64.25
59043;BME280;44826;51.596;5.624;2023-09-19T12:53:31;100840.91;;;18.46;64.17
59043;BME280;44826;51.596;5.624;2023-09-19T12:55:59;100839.81;;;18.50;62.92
59043;BME280;44826;51.596;5.624;2023-09-19T12:58:25;100840.56;;;18.52;63.18
59043;BME280;44826;51.596;5.624;2023-09-19T13:00:50;100833.06;;;18.60;63.41
59043;BME280;44826;51.596;5.624;2023-09-19T13:06:02;100835.59;;;18.62;63.08
59043;BME280;44826;51.596;5.624;2023-09-19T13:08:36;100824.88;;;18.65;64.02
59043;BME280;44826;51.596;5.624;2023-09-19T13:11:16;100825.34;;;18.72;65.69
59043;BME280;44826;51.596;5.624;2023-09-19T13:13:48;100829.50;;;18.76;63.42
59043;BME280;44826;51.596;5.624;2023-09-19T13:16:14;100824.88;;;18.79;64.11
59043;BME280;44826;51.596;5.624;2023-09-19T13:18:45;100826.41;;;18.84;63.49
59043;BME280;44826;51.596;5.624;2023-09-19T13:21:12;100828.00;;;18.86;64.83
59043;BME280;44826;51.596;5.624;2023-09-19T13:23:51;100836.00;;;18.85;64.46
59043;BME280;44826;51.596;5.624;2023-09-19T13:26:17;100834.56;;;18.79;63.47
59043;BME280;44826;51.596;5.624;2023-09-19T13:28:43;100834.78;;;18.76;64.10
59043;BME280;44826;51.596;5.624;2023-09-19T13:31:09;100835.91;;;18.72;64.25
59043;BME280;44826;51.596;5.624;2023-09-19T13:33:42;100835.31;;;18.66;64.66
59043;BME280;44826;51.596;5.624;2023-09-19T13:36:08;100850.47;;;18.63;64.75